createdAt,value
2022-07-29T00:00:24.344Z,35.67
2022-07-29T00:02:52.349Z,36.11
2022-07-29T00:05:24.075Z,35.53
2022-07-29T00:07:51.905Z,34.64
2022-07-29T00:10:19.826Z,34.88
2022-07-29T00:12:47.681Z,36.35
2022-07-29T00:15:15.948Z,35.33
2022-07-29T00:17:43.763Z,35.80
2022-07-29T00:20:12.117Z,36.86
2022-07-29T00:22:41.683Z,37.79
2022-07-29T00:25:10.021Z,38.20
2022-07-29T00:27:38.560Z,37.69
2022-07-29T00:30:07.669Z,36.40
2022-07-29T00:32:36.667Z,35.74
2022-07-29T00:35:22.604Z,36.25
2022-07-29T00:37:54.095Z,33.25
2022-07-29T00:40:23.475Z,36.72
2022-07-29T00:42:52.763Z,36.69
2022-07-29T00:45:22.889Z,39.15
2022-07-29T00:47:51.236Z,36.47
2022-07-29T00:50:19.176Z,37.16
2022-07-29T00:52:47.065Z,40.57
2022-07-29T00:55:17.864Z,38.16
2022-07-29T00:57:46.844Z,41.96
2022-07-29T01:00:18.256Z,40.17
2022-07-29T01:02:46.488Z,38.52
2022-07-29T01:05:14.827Z,36.66
2022-07-29T01:07:43.596Z,40.52
2022-07-29T01:10:12.474Z,41.44
2022-07-29T01:12:42.263Z,40.05
2022-07-29T01:15:10.842Z,42.33
2022-07-29T01:17:52.789Z,41.38
2022-07-29T01:20:31.516Z,41.02
2022-07-29T01:23:13.908Z,42.17
2022-07-29T01:25:57.031Z,42.22
2022-07-29T01:28:54.996Z,42.84
2022-07-29T01:31:29.050Z,43.36
2022-07-29T01:34:02.196Z,43.70
2022-07-29T01:36:33.508Z,46.47
2022-07-29T01:39:06.449Z,42.50
2022-07-29T01:41:36.005Z,44.47
2022-07-29T01:44:12.961Z,45.88
2022-07-29T01:46:45.252Z,45.61
2022-07-29T01:49:17.368Z,50.97
2022-07-29T01:51:49.713Z,45.82
2022-07-29T01:54:28.619Z,49.02
2022-07-29T01:56:58.371Z,43.66
2022-07-29T01:59:28.571Z,53.12
2022-07-29T02:01:57.468Z,49.33
2022-07-29T02:04:29.116Z,49.37
2022-07-29T02:07:01.106Z,45.77
2022-07-29T02:09:29.364Z,45.97
2022-07-29T02:11:58.272Z,43.42
2022-07-29T02:14:31.323Z,47.78
2022-07-29T02:17:00.758Z,44.01
2022-07-29T02:19:29.675Z,41.22
2022-07-29T02:21:58.430Z,40.93
2022-07-29T02:24:26.973Z,41.03
2022-07-29T02:26:56.295Z,43.05
2022-07-29T02:29:27.343Z,40.72
2022-07-29T02:31:55.762Z,40.40
2022-07-29T02:34:24.071Z,40.24
2022-07-29T02:36:52.196Z,41.24
2022-07-29T02:39:20.589Z,42.59
2022-07-29T02:41:50.708Z,41.11
2022-07-29T02:44:21.085Z,40.63
2022-07-29T02:46:54.281Z,40.38
2022-07-29T02:49:32.914Z,44.06
2022-07-29T02:52:03.404Z,43.96
2022-07-29T02:54:34.566Z,42.86
2022-07-29T02:57:06.034Z,44.00
2022-07-29T02:59:35.017Z,44.72
2022-07-29T03:02:04.850Z,44.81
2022-07-29T03:04:33.276Z,48.44
2022-07-29T03:07:03.365Z,51.30
2022-07-29T03:09:31.992Z,42.57
2022-07-29T03:12:00.013Z,48.83
2022-07-29T03:14:29.800Z,47.68
2022-07-29T03:16:57.690Z,50.50
2022-07-29T03:19:27.167Z,42.19
2022-07-29T03:21:55.259Z,48.16
2022-07-29T03:24:30.634Z,45.08
2022-07-29T03:26:59.024Z,44.41
2022-07-29T03:29:33.142Z,50.08
2022-07-29T03:32:03.535Z,46.67
2022-07-29T03:34:33.619Z,41.51
2022-07-29T03:37:01.937Z,44.94
2022-07-29T03:39:32.689Z,42.34
2022-07-29T03:42:02.468Z,41.71
2022-07-29T03:44:30.935Z,41.74
2022-07-29T03:47:00.166Z,43.18
2022-07-29T03:49:29.177Z,45.51
2022-07-29T03:51:58.479Z,44.65
2022-07-29T03:54:26.449Z,42.45
2022-07-29T03:56:54.961Z,42.82
2022-07-29T03:59:23.528Z,41.37
2022-07-29T04:01:52.315Z,41.60
2022-07-29T04:04:20.423Z,43.83
2022-07-29T04:06:48.629Z,44.79
2022-07-29T04:09:17.857Z,43.89
2022-07-29T04:11:59.128Z,43.68
2022-07-29T04:14:32.113Z,42.57
2022-07-29T04:16:59.967Z,42.40
2022-07-29T04:19:27.845Z,43.09
2022-07-29T04:21:55.743Z,45.30
2022-07-29T04:24:24.976Z,42.62
2022-07-29T04:26:53.167Z,46.23
2022-07-29T04:29:21.124Z,46.24
2022-07-29T04:31:49.186Z,47.42
2022-07-29T04:34:17.394Z,47.47
2022-07-29T04:36:45.507Z,45.63
2022-07-29T04:39:17.060Z,43.97
2022-07-29T04:41:48.633Z,41.97
2022-07-29T04:44:16.774Z,41.41
2022-07-29T04:46:45.637Z,44.30
2022-07-29T04:49:14.192Z,51.23
2022-07-29T04:51:42.211Z,44.14
2022-07-29T04:54:10.034Z,43.70
2022-07-29T04:56:37.944Z,40.96
2022-07-29T04:59:07.202Z,44.98
2022-07-29T05:01:35.173Z,43.98
2022-07-29T05:04:04.232Z,43.01
2022-07-29T05:06:32.252Z,41.18
2022-07-29T05:09:00.069Z,38.34
2022-07-29T05:11:30.553Z,37.71
2022-07-29T05:13:58.615Z,38.89
2022-07-29T05:16:28.272Z,36.54
2022-07-29T05:18:56.106Z,36.44
2022-07-29T05:21:24.050Z,37.42
2022-07-29T05:23:51.905Z,37.73
2022-07-29T05:26:19.901Z,39.59
2022-07-29T05:28:47.762Z,42.35
2022-07-29T05:31:15.903Z,40.71
2022-07-29T05:33:45.353Z,38.29
2022-07-29T05:36:13.252Z,39.65
2022-07-29T05:38:41.224Z,40.28
2022-07-29T05:41:09.123Z,44.31
2022-07-29T05:43:37.001Z,39.99
2022-07-29T05:46:07.963Z,37.15
2022-07-29T05:48:36.861Z,40.91
2022-07-29T05:51:09.174Z,36.33
2022-07-29T05:53:37.046Z,35.21
2022-07-29T05:56:08.567Z,36.18
2022-07-29T05:58:37.199Z,39.75
2022-07-29T06:01:08.205Z,37.66
2022-07-29T06:03:38.733Z,34.91
2022-07-29T06:06:08.213Z,37.97
2022-07-29T06:08:37.510Z,36.99
2022-07-29T06:11:09.309Z,38.13
2022-07-29T06:13:39.568Z,35.41
2022-07-29T06:16:07.623Z,38.89
2022-07-29T06:18:36.090Z,35.87
2022-07-29T06:21:06.153Z,33.87
2022-07-29T06:23:33.952Z,34.63
2022-07-29T06:26:08.467Z,36.66
2022-07-29T06:28:36.562Z,42.05
2022-07-29T06:31:06.997Z,37.89
2022-07-29T06:33:38.313Z,33.84
2022-07-29T06:36:10.044Z,35.21
2022-07-29T06:38:42.044Z,35.71
2022-07-29T06:41:13.523Z,33.89
2022-07-29T06:43:52.342Z,31.54
2022-07-29T06:46:23.928Z,33.45
2022-07-29T06:48:53.227Z,33.40
2022-07-29T06:51:23.096Z,33.34
2022-07-29T06:53:59.869Z,33.47
2022-07-29T06:56:32.395Z,33.00
2022-07-29T06:59:06.822Z,32.99
2022-07-29T07:01:34.710Z,32.62
2022-07-29T07:04:02.626Z,31.47
2022-07-29T07:06:30.488Z,31.81
2022-07-29T07:08:58.324Z,30.35
2022-07-29T07:11:26.232Z,32.15
2022-07-29T07:13:59.309Z,33.67
2022-07-29T07:16:30.364Z,30.37
2022-07-29T07:18:58.242Z,33.16
2022-07-29T07:21:26.218Z,31.54
2022-07-29T07:23:58.267Z,34.57
2022-07-29T07:26:26.098Z,33.22
2022-07-29T07:28:55.512Z,30.94
2022-07-29T07:31:23.493Z,29.81
2022-07-29T07:33:52.688Z,32.08
2022-07-29T07:36:20.602Z,30.69
2022-07-29T07:38:48.481Z,28.62
2022-07-29T07:41:16.378Z,28.89
2022-07-29T07:43:44.236Z,27.04
2022-07-29T07:46:13.905Z,28.41
2022-07-29T07:48:41.856Z,29.71
2022-07-29T07:51:09.725Z,27.37
2022-07-29T07:53:37.735Z,27.97
2022-07-29T07:56:11.508Z,27.27
2022-07-29T07:58:40.516Z,29.53
2022-07-29T08:01:08.733Z,26.92
2022-07-29T08:03:38.591Z,29.06
2022-07-29T08:06:06.969Z,26.74
2022-07-29T08:08:34.836Z,26.76
2022-07-29T08:11:09.478Z,27.97
2022-07-29T08:13:38.586Z,28.03
2022-07-29T08:16:13.857Z,28.00
2022-07-29T08:18:44.801Z,28.88
2022-07-29T08:21:14.763Z,26.14
2022-07-29T08:23:54.362Z,26.12
2022-07-29T08:26:26.770Z,26.69
2022-07-29T08:28:54.882Z,26.71
2022-07-29T08:31:22.932Z,28.45
2022-07-29T08:33:52.338Z,26.80
2022-07-29T08:36:22.030Z,26.08
2022-07-29T08:38:50.635Z,27.04
2022-07-29T08:41:20.002Z,27.02
2022-07-29T08:43:48.426Z,27.18
2022-07-29T08:46:16.414Z,26.58
2022-07-29T08:48:44.529Z,25.34
2022-07-29T08:51:17.002Z,26.89
2022-07-29T08:53:45.777Z,28.57
2022-07-29T08:56:15.145Z,27.17
2022-07-29T08:58:43.289Z,25.50
2022-07-29T09:01:18.481Z,25.55
2022-07-29T09:03:48.419Z,28.18
2022-07-29T09:06:20.256Z,28.11
2022-07-29T09:08:48.249Z,26.11
2022-07-29T09:11:16.499Z,25.01
2022-07-29T09:13:44.328Z,25.38
2022-07-29T09:16:12.194Z,25.31
2022-07-29T09:18:42.073Z,23.86
2022-07-29T09:21:30.024Z,25.14
2022-07-29T09:24:09.170Z,24.92
2022-07-29T09:26:38.391Z,25.10
2022-07-29T09:29:15.935Z,22.87
2022-07-29T09:31:45.866Z,23.63
2022-07-29T09:34:14.829Z,22.66
2022-07-29T09:36:43.398Z,22.00
2022-07-29T09:39:12.828Z,23.58
2022-07-29T09:41:48.760Z,23.07
2022-07-29T09:44:17.057Z,23.68
2022-07-29T09:46:58.972Z,23.86
2022-07-29T09:49:27.694Z,23.92
2022-07-29T09:52:03.455Z,23.36
2022-07-29T09:54:37.585Z,21.88
2022-07-29T09:57:06.465Z,22.50
2022-07-29T09:59:34.792Z,22.05
2022-07-29T10:02:03.029Z,22.14
2022-07-29T10:04:42.039Z,21.14
2022-07-29T10:07:10.562Z,20.76
2022-07-29T10:09:39.772Z,21.82
2022-07-29T10:12:10.087Z,22.17
2022-07-29T10:14:38.489Z,20.79
2022-07-29T10:17:07.703Z,21.84
2022-07-29T10:19:36.561Z,21.16
2022-07-29T10:22:06.270Z,21.55
2022-07-29T10:24:34.755Z,21.55
2022-07-29T10:27:05.285Z,20.16
2022-07-29T10:29:33.351Z,19.68
2022-07-29T10:32:21.282Z,21.22
2022-07-29T10:35:02.598Z,20.05
2022-07-29T10:37:35.933Z,18.43
2022-07-29T10:40:25.431Z,20.39
2022-07-29T10:42:57.809Z,20.93
2022-07-29T10:45:26.045Z,21.44
2022-07-29T10:48:07.937Z,20.47
2022-07-29T10:50:57.751Z,20.88
2022-07-29T10:53:25.935Z,20.67
2022-07-29T10:56:01.631Z,19.94
2022-07-29T10:58:35.657Z,18.71
2022-07-29T11:01:37.239Z,20.17
2022-07-29T11:07:11.023Z,21.88
2022-07-29T11:09:40.035Z,20.07
2022-07-29T11:12:48.257Z,20.57
2022-07-29T11:15:19.995Z,21.17
2022-07-29T11:18:15.256Z,20.89
2022-07-29T11:20:47.771Z,21.33
2022-07-29T11:23:24.437Z,21.61
2022-07-29T11:26:23.298Z,20.44
2022-07-29T11:28:59.523Z,23.19
2022-07-29T11:31:39.989Z,22.68
2022-07-29T11:34:28.238Z,21.17
2022-07-29T11:37:30.878Z,20.86
2022-07-29T11:40:21.305Z,20.96
2022-07-29T11:42:51.895Z,21.26
2022-07-29T11:45:41.640Z,21.46
2022-07-29T11:48:31.363Z,20.64
2022-07-29T11:51:03.907Z,20.41
2022-07-29T11:53:35.768Z,19.57
2022-07-29T11:56:06.155Z,19.87
2022-07-29T11:58:34.506Z,18.88
2022-07-29T12:01:06.161Z,20.43
2022-07-29T12:06:23.696Z,19.03
2022-07-29T12:08:51.574Z,19.42
2022-07-29T12:11:21.555Z,20.77
2022-07-29T12:13:50.242Z,19.45
2022-07-29T12:16:27.922Z,19.08
2022-07-29T12:18:59.948Z,19.04
2022-07-29T12:21:29.117Z,19.00
2022-07-29T12:24:04.837Z,20.92
2022-07-29T12:26:36.608Z,17.90
2022-07-29T12:29:07.326Z,22.00
2022-07-29T12:31:43.516Z,18.34
2022-07-29T12:34:14.419Z,17.59
2022-07-29T12:36:43.118Z,18.43
2022-07-29T12:39:11.130Z,19.43
2022-07-29T12:41:39.636Z,21.04
2022-07-29T12:44:07.385Z,20.83
2022-07-29T12:46:35.428Z,21.62
2022-07-29T12:49:04.077Z,20.81
2022-07-29T12:51:35.192Z,20.88
2022-07-29T12:54:06.561Z,21.65
2022-07-29T12:56:43.632Z,22.28
2022-07-29T12:59:17.811Z,19.82
2022-07-29T13:01:45.846Z,20.63
2022-07-29T13:04:26.165Z,19.30
2022-07-29T13:07:04.793Z,18.89
2022-07-29T13:09:40.270Z,20.28
2022-07-29T13:12:09.429Z,20.50
2022-07-29T13:14:38.878Z,18.56
2022-07-29T13:17:08.442Z,19.59
2022-07-29T13:19:38.273Z,20.89
2022-07-29T13:22:07.579Z,21.69
2022-07-29T13:24:35.803Z,21.10
2022-07-29T13:27:05.524Z,20.63
2022-07-29T13:29:34.142Z,20.00
2022-07-29T13:32:02.050Z,19.38
2022-07-29T13:34:29.911Z,16.49
2022-07-29T13:36:57.699Z,20.05
2022-07-29T13:39:26.918Z,19.95
2022-07-29T13:41:55.203Z,18.31
2022-07-29T13:44:24.299Z,17.62
2022-07-29T13:46:52.151Z,19.95
2022-07-29T13:49:20.168Z,17.86
2022-07-29T13:51:48.003Z,17.51
2022-07-29T13:54:15.836Z,18.67
2022-07-29T13:56:45.039Z,17.56
2022-07-29T13:59:16.412Z,19.10
2022-07-29T14:01:44.400Z,18.27
2022-07-29T14:04:13.713Z,18.38
2022-07-29T14:06:41.713Z,20.51
2022-07-29T14:09:10.128Z,20.71
2022-07-29T14:11:39.347Z,20.71
2022-07-29T14:14:08.776Z,18.50
2022-07-29T14:16:42.028Z,17.96
2022-07-29T14:19:11.885Z,18.14
2022-07-29T14:21:39.954Z,20.78
2022-07-29T14:24:16.301Z,18.00
2022-07-29T14:26:46.286Z,18.32
2022-07-29T14:29:15.837Z,16.30
2022-07-29T14:31:44.853Z,18.20
2022-07-29T14:34:12.749Z,16.48
2022-07-29T14:36:40.563Z,16.60
2022-07-29T14:39:08.432Z,16.83
2022-07-29T14:41:36.302Z,18.38
2022-07-29T14:44:04.433Z,17.42
2022-07-29T14:46:33.614Z,19.33
2022-07-29T14:49:02.277Z,19.71
2022-07-29T14:51:32.404Z,20.24
2022-07-29T14:54:00.699Z,20.17
2022-07-29T14:56:46.828Z,20.08
2022-07-29T14:59:15.033Z,20.26
2022-07-29T15:01:44.772Z,19.10
2022-07-29T15:04:12.595Z,17.29
2022-07-29T15:06:40.485Z,16.11
2022-07-29T15:09:08.395Z,17.26
2022-07-29T15:11:37.039Z,16.27
2022-07-29T15:14:06.789Z,18.10
2022-07-29T15:16:34.953Z,16.50
2022-07-29T15:19:04.768Z,17.12
2022-07-29T15:21:32.708Z,18.29
2022-07-29T15:24:00.585Z,17.34
2022-07-29T15:26:28.736Z,15.65
2022-07-29T15:28:57.389Z,16.18
2022-07-29T15:31:25.383Z,18.13
2022-07-29T15:33:57.593Z,18.92
2022-07-29T15:36:51.088Z,19.62
2022-07-29T15:39:15.770Z,18.05
2022-07-29T15:41:43.692Z,17.83
2022-07-29T15:44:11.525Z,15.78
2022-07-29T15:46:57.335Z,16.84
2022-07-29T15:49:31.399Z,15.94
2022-07-29T15:52:26.190Z,17.47
2022-07-29T15:54:55.092Z,18.02
2022-07-29T15:57:23.346Z,17.65
2022-07-29T15:59:51.934Z,19.06
2022-07-29T16:02:19.985Z,18.43
2022-07-29T16:04:47.819Z,20.38
2022-07-29T16:07:15.708Z,19.92
2022-07-29T16:09:50.815Z,20.09
2022-07-29T16:12:20.639Z,20.28
2022-07-29T16:14:49.401Z,20.64
2022-07-29T16:17:17.498Z,20.54
2022-07-29T16:19:45.695Z,19.05
2022-07-29T16:22:13.832Z,21.15
2022-07-29T16:24:41.779Z,19.73
2022-07-29T16:27:11.030Z,19.57
2022-07-29T16:29:38.915Z,19.41
2022-07-29T16:32:07.505Z,20.53
2022-07-29T16:34:35.469Z,21.96
2022-07-29T16:37:03.882Z,20.96
2022-07-29T16:39:32.179Z,20.70
2022-07-29T16:42:02.309Z,19.80
2022-07-29T16:44:33.638Z,20.11
2022-07-29T16:47:02.642Z,19.97
2022-07-29T16:49:31.473Z,19.68
2022-07-29T16:51:59.343Z,20.10
2022-07-29T16:54:27.360Z,19.34
2022-07-29T16:56:55.727Z,19.87
2022-07-29T16:59:26.834Z,19.55
2022-07-29T17:01:56.220Z,19.59
2022-07-29T17:04:24.135Z,19.25
2022-07-29T17:06:52.497Z,20.02
2022-07-29T17:09:21.070Z,19.69
2022-07-29T17:11:54.832Z,18.89
2022-07-29T17:14:24.873Z,18.61
2022-07-29T17:17:00.514Z,19.20
2022-07-29T17:19:33.824Z,19.49
2022-07-29T17:22:10.537Z,18.63
2022-07-29T17:24:42.158Z,20.27
2022-07-29T17:27:10.364Z,18.22
2022-07-29T17:29:38.762Z,17.31
2022-07-29T17:32:08.995Z,18.85
2022-07-29T17:34:38.407Z,16.93
2022-07-29T17:37:06.511Z,17.58
2022-07-29T17:39:35.456Z,17.87
2022-07-29T17:42:03.511Z,18.65
2022-07-29T17:44:31.431Z,17.47
2022-07-29T17:47:01.546Z,16.96
2022-07-29T17:49:29.918Z,17.59
2022-07-29T17:52:01.077Z,18.13
2022-07-29T17:54:29.616Z,18.47
2022-07-29T17:56:57.705Z,18.16
2022-07-29T17:59:25.807Z,18.16
2022-07-29T18:01:54.163Z,18.06
2022-07-29T18:04:23.472Z,19.99
2022-07-29T18:06:51.692Z,19.73
2022-07-29T18:09:20.853Z,19.98
2022-07-29T18:11:48.885Z,19.16
2022-07-29T18:14:17.109Z,20.62
2022-07-29T18:16:45.057Z,20.32
2022-07-29T18:19:13.042Z,20.45
2022-07-29T18:21:51.272Z,21.11
2022-07-29T18:24:25.589Z,21.92
2022-07-29T18:26:53.665Z,21.21
2022-07-29T18:29:21.541Z,20.70
2022-07-29T18:31:49.618Z,22.44
2022-07-29T18:34:17.797Z,21.80
2022-07-29T18:36:46.064Z,21.31
2022-07-29T18:39:18.864Z,21.56
2022-07-29T18:41:51.634Z,21.42
2022-07-29T18:44:21.884Z,21.93
2022-07-29T18:46:51.585Z,22.08
2022-07-29T18:49:19.835Z,21.54
2022-07-29T18:51:48.465Z,22.16
2022-07-29T18:54:17.391Z,23.07
2022-07-29T18:56:45.453Z,23.46
2022-07-29T18:59:17.046Z,22.74
2022-07-29T19:01:45.203Z,22.76
2022-07-29T19:04:13.186Z,23.76
2022-07-29T19:06:41.471Z,24.83
2022-07-29T19:09:09.552Z,24.21
2022-07-29T19:11:37.666Z,24.92
2022-07-29T19:14:06.611Z,23.63
2022-07-29T19:16:36.029Z,23.17
2022-07-29T19:19:05.626Z,24.11
2022-07-29T19:21:33.463Z,24.98
2022-07-29T19:24:07.387Z,24.96
2022-07-29T19:26:39.241Z,24.40
2022-07-29T19:29:07.202Z,24.18
2022-07-29T19:31:36.506Z,24.29
2022-07-29T19:34:05.645Z,24.92
2022-07-29T19:36:33.580Z,24.67
2022-07-29T19:39:01.995Z,25.80
2022-07-29T19:41:29.947Z,25.44
2022-07-29T19:43:58.187Z,24.84
2022-07-29T19:46:28.824Z,25.16
2022-07-29T19:48:58.187Z,24.30
2022-07-29T19:51:26.990Z,25.89
2022-07-29T19:53:54.804Z,25.47
2022-07-29T19:56:25.267Z,28.25
2022-07-29T19:58:53.151Z,26.12
2022-07-29T20:01:21.538Z,26.54
2022-07-29T20:03:49.533Z,28.00
2022-07-29T20:06:18.921Z,29.02
2022-07-29T20:08:46.985Z,27.50
2022-07-29T20:11:14.911Z,27.30
2022-07-29T20:13:42.877Z,28.25
2022-07-29T20:16:10.827Z,27.33
2022-07-29T20:18:38.793Z,28.24
2022-07-29T20:21:06.783Z,28.28
2022-07-29T20:23:35.987Z,28.35
2022-07-29T20:26:09.232Z,27.06
2022-07-29T20:28:40.095Z,28.15
2022-07-29T20:31:08.788Z,27.80
2022-07-29T20:33:36.747Z,28.07
2022-07-29T20:36:07.655Z,26.93
2022-07-29T20:38:36.914Z,27.87
2022-07-29T20:41:08.173Z,28.08
2022-07-29T20:43:39.161Z,28.03
2022-07-29T20:46:07.281Z,29.67
2022-07-29T20:48:35.238Z,29.02
2022-07-29T20:51:06.790Z,27.75
2022-07-29T20:53:36.134Z,29.44
2022-07-29T20:56:07.813Z,29.03
2022-07-29T20:58:36.502Z,29.96
2022-07-29T21:01:08.013Z,29.88
2022-07-29T21:03:35.956Z,28.84
2022-07-29T21:06:09.625Z,28.06
2022-07-29T21:08:39.128Z,28.86
2022-07-29T21:11:06.921Z,29.81
2022-07-29T21:13:38.389Z,29.30
2022-07-29T21:16:14.883Z,29.45
2022-07-29T21:18:46.006Z,28.37
2022-07-29T21:21:15.218Z,29.46
2022-07-29T21:23:45.921Z,31.10
2022-07-29T21:26:13.821Z,29.89
2022-07-29T21:28:40.929Z,29.54
2022-07-29T21:31:10.431Z,28.83
2022-07-29T21:33:38.567Z,28.64
2022-07-29T21:36:42.380Z,29.21
2022-07-29T21:38:57.278Z,29.05
2022-07-29T21:41:25.518Z,29.29
2022-07-29T21:43:54.570Z,30.73
2022-07-29T21:46:26.114Z,31.64
2022-07-29T21:48:54.005Z,31.30
2022-07-29T21:51:21.887Z,30.95
2022-07-29T21:53:50.551Z,31.40
2022-07-29T21:56:23.616Z,30.73
2022-07-29T21:58:55.521Z,29.52
2022-07-29T22:01:23.799Z,29.90
2022-07-29T22:03:51.872Z,30.51
2022-07-29T22:06:19.776Z,31.63
2022-07-29T22:08:48.079Z,29.88
2022-07-29T22:11:16.146Z,31.14
2022-07-29T22:13:45.367Z,30.70
2022-07-29T22:16:14.975Z,29.45
2022-07-29T22:18:45.023Z,30.79
2022-07-29T22:21:12.947Z,30.15
2022-07-29T22:23:40.805Z,29.36
2022-07-29T22:26:08.640Z,28.97
2022-07-29T22:28:36.559Z,29.19
2022-07-29T22:31:08.987Z,30.57
2022-07-29T22:33:37.153Z,29.37
2022-07-29T22:36:08.371Z,30.06
2022-07-29T22:38:36.225Z,29.18
2022-07-29T22:41:06.242Z,30.21
2022-07-29T22:43:34.158Z,30.02
2022-07-29T22:46:06.222Z,30.59
2022-07-29T22:48:35.445Z,31.24
2022-07-29T22:51:06.077Z,30.40
2022-07-29T22:53:33.878Z,30.30
2022-07-29T22:56:04.396Z,30.44
2022-07-29T22:58:32.358Z,31.07
2022-07-29T23:01:00.277Z,29.84
2022-07-29T23:03:29.023Z,30.02
2022-07-29T23:05:58.252Z,30.33
2022-07-29T23:08:26.152Z,31.92
2022-07-29T23:10:53.992Z,30.82
2022-07-29T23:13:21.916Z,29.01
2022-07-29T23:15:49.805Z,29.76
2022-07-29T23:18:17.729Z,29.82
2022-07-29T23:20:45.722Z,29.79
2022-07-29T23:23:15.047Z,29.76
2022-07-29T23:25:42.927Z,30.19
2022-07-29T23:28:12.200Z,30.84
2022-07-29T23:30:41.391Z,30.64
2022-07-29T23:33:09.343Z,31.29
2022-07-29T23:35:37.319Z,30.55
2022-07-29T23:38:05.168Z,29.40
2022-07-29T23:40:34.417Z,30.13
2022-07-29T23:43:02.251Z,30.53
2022-07-29T23:45:44.556Z,30.82
2022-07-29T23:48:16.485Z,30.25
2022-07-29T23:50:44.370Z,30.28
2022-07-29T23:53:12.641Z,31.35
2022-07-29T23:55:41.896Z,31.59
2022-07-29T23:58:09.702Z,31.38
